Terminal Aerodrome Forecast
Issued by NWS

Current Version | Previous Version | Graphics & Text | Print | Product List | Glossary On
Versions: 1 2 3 4 5 6 7 8 9 10 11 12 13 14 15 16 17 18 19 20 21 22 23 24
000
FTUS41 KILN 221000 AAB
TAFLCK
TAF AMD
KLCK 221053Z 2211/2306 00000KT 5SM BR SKC
      TEMPO 2211/2213 1 1/2SM BR VV007
     FM221300 20006KT P6SM SCT040
     FM230000 22005KT P6SM SCT250=

USA.gov is the U.S. government's official web portal to all federal, state and local government web resources and services.